Lampe, Missouri
Current Conditions -  °F | °C
As of 4:35 PM on Friday 28 Nov 2014 (Local Time) from KFWB Reporting Station
Clear Clear  
Wind Chill: 59°   Ceiling: Unl
Heat Index: 59°   Visibility: 10mi
Dew Point: 36°   Wind: 6mph
Humidity: 42%   Direction: 170°S
Pressure: 29.94"   Gusts: NA
Location:  36.56°N, 93.44°W
Report Text: KFWB 282235Z AUTO 17005KT 10SM CLR 15/02 A2994 RMK AO2
Loading
Personal Weather Stations






























Interactive Weather Map New forecast layout! Learn more

10-Day Weather Forecast

Advertisements
Track Severe Weather on mobile